createdAt,value
2023-03-22T00:01:24.215Z,194.23
2023-03-22T00:03:52.755Z,220.23
2023-03-22T00:06:20.032Z,188.73
2023-03-22T00:08:51.581Z,200.03
2023-03-22T00:11:20.579Z,198.57
2023-03-22T00:13:47.809Z,200.33
2023-03-22T00:16:15.806Z,225.13
2023-03-22T00:18:42.960Z,207.77
2023-03-22T00:21:15.427Z,208.27
2023-03-22T00:23:42.881Z,199.10
2023-03-22T00:26:11.280Z,187.70
2023-03-22T00:28:39.067Z,191.67
2023-03-22T00:31:07.193Z,204.67
2023-03-22T00:33:34.356Z,208.40
2023-03-22T00:36:10.992Z,193.50
2023-03-22T00:38:43.882Z,194.27
2023-03-22T00:41:16.809Z,209.47
2023-03-22T00:43:46.405Z,210.37
2023-03-22T00:46:15.172Z,221.63
2023-03-22T00:48:44.129Z,226.73
2023-03-22T00:51:11.928Z,229.97
2023-03-22T00:53:42.574Z,222.57
2023-03-22T00:56:15.729Z,231.13
2023-03-22T00:59:03.882Z,226.37
2023-03-22T01:01:31.073Z,227.60
2023-03-22T01:03:58.208Z,231.13
2023-03-22T01:06:25.193Z,224.90
2023-03-22T01:08:55.163Z,229.27
2023-03-22T01:11:22.229Z,230.10
2023-03-22T01:13:49.795Z,214.20
2023-03-22T01:16:18.218Z,187.37
2023-03-22T01:18:45.461Z,227.83
2023-03-22T01:21:12.537Z,224.03
2023-03-22T01:23:39.945Z,225.27
2023-03-22T01:26:07.276Z,218.87
2023-03-22T01:28:34.220Z,204.03
2023-03-22T01:31:02.813Z,198.97
2023-03-22T01:33:30.690Z,151.20
2023-03-22T01:35:57.979Z,143.03
2023-03-22T01:38:25.049Z,165.10
2023-03-22T01:40:57.420Z,168.77
2023-03-22T01:43:25.294Z,170.70
2023-03-22T01:45:54.242Z,170.40
2023-03-22T01:48:29.658Z,174.20
2023-03-22T01:51:07.199Z,180.70
2023-03-22T01:53:54.658Z,173.40
2023-03-22T01:56:25.811Z,183.07
2023-03-22T01:58:55.108Z,160.20
2023-03-22T02:01:29.457Z,143.53
2023-03-22T02:04:15.829Z,118.70
2023-03-22T02:06:43.486Z,122.43
2023-03-22T02:09:18.198Z,118.87
2023-03-22T02:11:55.796Z,97.77
2023-03-22T02:14:49.494Z,98.07
2023-03-22T02:17:59.792Z,94.13
2023-03-22T02:20:42.198Z,105.77
2023-03-22T02:23:17.981Z,116.07
2023-03-22T02:26:05.902Z,115.37
2023-03-22T02:28:43.096Z,110.67
2023-03-22T02:31:40.247Z,109.33
2023-03-22T02:34:28.665Z,115.97
2023-03-22T02:37:19.415Z,121.33
2023-03-22T02:40:04.316Z,137.77
2023-03-22T02:42:42.328Z,136.47
2023-03-22T02:45:29.039Z,136.67
2023-03-22T02:48:19.044Z,127.80
2023-03-22T02:50:55.337Z,141.07
2023-03-22T02:53:37.518Z,141.70
2023-03-22T02:56:15.479Z,152.33
2023-03-22T02:58:53.244Z,155.17
2023-03-22T03:01:37.003Z,143.33
2023-03-22T03:04:10.039Z,138.10
2023-03-22T03:06:46.128Z,134.47
2023-03-22T03:09:19.292Z,137.07
2023-03-22T03:11:51.052Z,130.17
2023-03-22T03:14:31.108Z,127.37
2023-03-22T03:17:29.045Z,136.83
2023-03-22T03:20:08.534Z,128.03
2023-03-22T03:23:14.481Z,131.70
2023-03-22T03:25:57.891Z,128.70
2023-03-22T03:28:46.601Z,127.27
2023-03-22T03:31:55.384Z,176.40
2023-03-22T03:34:35.234Z,113.43
2023-03-22T03:37:14.270Z,98.93
2023-03-22T03:39:55.092Z,89.13
2023-03-22T03:42:25.871Z,102.13
2023-03-22T03:44:53.159Z,122.17
2023-03-22T03:47:20.926Z,137.23
2023-03-22T03:49:47.891Z,123.03
2023-03-22T03:52:14.930Z,114.90
2023-03-22T03:54:42.744Z,147.97
2023-03-22T03:57:16.644Z,179.53
2023-03-22T03:59:43.741Z,176.63
2023-03-22T04:02:19.803Z,182.87
2023-03-22T04:04:47.683Z,186.13
2023-03-22T04:07:14.891Z,198.33
2023-03-22T04:09:41.924Z,212.53
2023-03-22T04:12:22.615Z,208.20
2023-03-22T04:15:12.084Z,205.87
2023-03-22T04:17:40.252Z,202.50
2023-03-22T04:20:11.032Z,178.20
2023-03-22T04:22:40.209Z,185.63
2023-03-22T04:25:13.144Z,186.67
2023-03-22T04:27:51.202Z,192.87
2023-03-22T04:30:20.205Z,184.17
2023-03-22T04:33:11.645Z,199.43
2023-03-22T04:35:57.395Z,205.83
2023-03-22T04:38:30.912Z,206.17
2023-03-22T04:40:58.507Z,192.00
2023-03-22T04:43:35.551Z,198.00
2023-03-22T04:46:06.625Z,204.70
2023-03-22T04:48:41.782Z,196.20
2023-03-22T04:51:12.016Z,202.20
2023-03-22T04:53:47.841Z,208.87
2023-03-22T04:56:15.850Z,203.67
2023-03-22T04:58:45.198Z,373.77
2023-03-22T05:01:15.738Z,205.63
2023-03-22T05:03:47.390Z,207.23
2023-03-22T05:06:17.674Z,195.60
2023-03-22T05:08:58.817Z,201.83
2023-03-22T05:11:27.976Z,201.13
2023-03-22T05:14:13.239Z,204.20
2023-03-22T05:16:41.582Z,202.60
2023-03-22T05:19:13.850Z,197.87
2023-03-22T05:21:44.224Z,200.07
2023-03-22T05:24:11.981Z,197.27
2023-03-22T05:26:43.318Z,171.47
2023-03-22T05:29:12.151Z,173.20
2023-03-22T05:32:08.166Z,168.37
2023-03-22T05:34:38.227Z,179.63
2023-03-22T05:37:21.191Z,167.70
2023-03-22T05:39:52.447Z,153.73
2023-03-22T05:42:20.693Z,161.53
2023-03-22T05:44:47.676Z,163.00
2023-03-22T05:47:14.651Z,152.30
2023-03-22T05:50:14.850Z,194.23
2023-03-22T05:52:42.810Z,183.20
2023-03-22T05:55:39.078Z,193.50
2023-03-22T05:58:06.499Z,194.60
2023-03-22T06:00:37.111Z,186.50
2023-03-22T06:03:23.322Z,190.63
2023-03-22T06:05:58.737Z,185.03
2023-03-22T06:08:41.038Z,192.00
2023-03-22T06:11:08.723Z,191.37
2023-03-22T06:13:37.433Z,168.00
2023-03-22T06:16:06.378Z,191.70
2023-03-22T06:18:34.042Z,183.93
2023-03-22T06:21:08.848Z,181.27
2023-03-22T06:23:37.153Z,165.60
2023-03-22T06:26:05.049Z,175.77
2023-03-22T06:28:34.839Z,174.23
2023-03-22T06:31:08.144Z,175.47
2023-03-22T06:33:56.102Z,158.73
2023-03-22T06:36:42.626Z,140.03
2023-03-22T06:39:17.011Z,160.67
2023-03-22T06:41:45.670Z,193.10
2023-03-22T06:44:13.490Z,190.30
2023-03-22T06:47:04.663Z,193.00
2023-03-22T06:49:51.334Z,190.90
2023-03-22T06:52:23.769Z,186.93
2023-03-22T06:54:50.975Z,180.40
2023-03-22T06:57:17.993Z,203.03
2023-03-22T06:59:46.028Z,195.73
2023-03-22T07:02:13.589Z,196.37
2023-03-22T07:04:46.496Z,193.90
2023-03-22T07:07:13.864Z,202.60
2023-03-22T07:09:41.122Z,207.17
2023-03-22T07:12:08.129Z,194.63
2023-03-22T07:14:35.721Z,201.17
2023-03-22T07:17:14.189Z,186.30
2023-03-22T07:19:42.824Z,204.67
2023-03-22T07:22:11.611Z,189.90
2023-03-22T07:24:47.240Z,195.97
2023-03-22T07:27:21.780Z,173.47
2023-03-22T07:29:49.678Z,155.80
2023-03-22T07:32:16.837Z,126.93
2023-03-22T07:34:57.874Z,172.37
2023-03-22T07:37:25.686Z,121.63
2023-03-22T07:39:52.771Z,141.27
2023-03-22T07:42:19.802Z,155.70
2023-03-22T07:45:06.739Z,136.10
2023-03-22T07:47:43.031Z,105.53
2023-03-22T07:50:32.882Z,135.50
2023-03-22T07:53:04.231Z,134.63
2023-03-22T07:55:31.807Z,200.10
2023-03-22T07:57:59.217Z,184.80
2023-03-22T08:00:26.319Z,181.63
2023-03-22T08:03:13.289Z,175.13
2023-03-22T08:05:58.906Z,201.93
2023-03-22T08:08:26.444Z,198.40
2023-03-22T08:10:53.672Z,187.00
2023-03-22T08:13:20.955Z,149.60
2023-03-22T08:15:47.937Z,177.23
2023-03-22T08:18:15.512Z,195.30
2023-03-22T08:20:45.721Z,185.00
2023-03-22T08:23:18.056Z,167.27
2023-03-22T08:26:03.523Z,204.30
2023-03-22T08:28:32.393Z,213.03
2023-03-22T08:30:59.686Z,189.43
2023-03-22T08:33:28.645Z,167.23
2023-03-22T08:36:08.013Z,145.90
2023-03-22T08:38:42.528Z,150.83
2023-03-22T08:41:10.032Z,169.73
2023-03-22T08:43:37.287Z,163.90
2023-03-22T08:46:05.080Z,178.67
2023-03-22T08:48:32.439Z,161.80
2023-03-22T08:51:10.652Z,165.73
2023-03-22T08:53:55.091Z,112.50
2023-03-22T08:56:54.480Z,94.33
2023-03-22T08:59:47.983Z,111.63
2023-03-22T09:02:21.199Z,99.80
2023-03-22T09:04:48.526Z,38.67
2023-03-22T09:07:17.512Z,92.40
2023-03-22T09:09:50.400Z,87.55
2023-03-22T09:12:17.869Z,45.67
2023-03-22T09:14:46.806Z,35.75
2023-03-22T09:17:14.250Z,49.72
2023-03-22T09:19:41.395Z,54.78
2023-03-22T09:22:08.705Z,96.50
2023-03-22T09:24:45.478Z,66.53
2023-03-22T09:27:13.155Z,63.28
2023-03-22T09:29:41.028Z,58.78
2023-03-22T09:32:13.040Z,59.53
2023-03-22T09:34:41.203Z,55.45
2023-03-22T09:37:08.288Z,37.22
2023-03-22T09:39:44.595Z,37.08
2023-03-22T09:42:31.741Z,61.15
2023-03-22T09:45:04.803Z,48.42
2023-03-22T09:47:44.699Z,54.85
2023-03-22T09:50:18.028Z,29.23
2023-03-22T09:52:45.243Z,109.13
2023-03-22T09:55:47.646Z,112.50
2023-03-22T09:58:41.375Z,107.47
2023-03-22T10:02:02.958Z,115.13
2023-03-22T10:05:00.670Z,82.37
2023-03-22T10:08:07.422Z,75.72
2023-03-22T10:10:34.646Z,61.92
2023-03-22T10:13:21.765Z,50.47
2023-03-22T10:16:00.863Z,92.75
2023-03-22T10:18:43.706Z,90.63
2023-03-22T10:21:14.737Z,93.55
2023-03-22T10:23:50.167Z,98.32
2023-03-22T10:26:34.674Z,55.13
2023-03-22T10:29:12.636Z,47.67
2023-03-22T10:31:43.957Z,48.92
2023-03-22T10:34:31.315Z,40.25
2023-03-22T10:37:01.630Z,36.17
2023-03-22T10:39:31.993Z,27.42
2023-03-22T10:42:08.614Z,43.50
2023-03-22T10:44:48.171Z,35.13
2023-03-22T10:47:19.707Z,69.90
2023-03-22T10:49:54.737Z,66.45
2023-03-22T10:52:40.787Z,52.42
2023-03-22T10:55:16.831Z,54.05
2023-03-22T10:58:01.454Z,51.65
2023-03-22T11:00:29.089Z,52.15
2023-03-22T11:03:00.859Z,67.05
2023-03-22T11:05:30.171Z,62.47
2023-03-22T11:07:58.814Z,77.07
2023-03-22T11:10:32.820Z,52.70
2023-03-22T11:13:24.421Z,61.05
2023-03-22T11:16:02.204Z,53.90
2023-03-22T11:18:32.858Z,75.45
2023-03-22T11:21:12.060Z,69.72
2023-03-22T11:23:43.616Z,85.75
2023-03-22T11:26:13.355Z,78.88
2023-03-22T11:28:49.966Z,86.95
2023-03-22T11:31:20.556Z,106.97
2023-03-22T11:33:56.793Z,79.40
2023-03-22T11:36:24.613Z,99.95
2023-03-22T11:39:04.435Z,121.30
2023-03-22T11:41:36.416Z,128.00
2023-03-22T11:44:10.398Z,116.00
2023-03-22T11:46:39.572Z,174.90
2023-03-22T11:49:17.576Z,118.47
2023-03-22T11:51:45.437Z,110.47
2023-03-22T11:54:30.718Z,139.80
2023-03-22T11:57:05.002Z,115.25
2023-03-22T12:00:11.507Z,76.00
2023-03-22T12:02:46.571Z,37.47
2023-03-22T12:05:25.789Z,62.97
2023-03-22T12:08:00.775Z,95.38
2023-03-22T12:10:41.269Z,117.65
2023-03-22T12:13:17.656Z,112.82
2023-03-22T12:15:50.601Z,134.65
2023-03-22T12:18:34.745Z,89.97
2023-03-22T12:21:02.417Z,108.32
2023-03-22T12:23:35.260Z,101.30
2023-03-22T12:26:12.618Z,67.82
2023-03-22T12:28:56.769Z,21.48
2023-03-22T12:31:30.002Z,23.25
2023-03-22T12:34:03.630Z,49.45
2023-03-22T12:36:42.566Z,51.42
2023-03-22T12:39:21.221Z,41.63
2023-03-22T12:41:51.090Z,54.55
2023-03-22T12:44:25.587Z,25.20
2023-03-22T12:47:10.280Z,21.80
2023-03-22T12:49:54.349Z,69.07
2023-03-22T12:52:34.856Z,59.05
2023-03-22T12:55:10.726Z,38.67
2023-03-22T12:57:40.324Z,89.45
2023-03-22T13:00:15.972Z,75.50
2023-03-22T13:02:55.166Z,32.83
2023-03-22T13:05:27.467Z,48.50
2023-03-22T13:07:59.318Z,59.92
2023-03-22T13:10:32.885Z,37.08
2023-03-22T13:13:19.684Z,44.05
2023-03-22T13:16:01.125Z,28.08
2023-03-22T13:18:37.902Z,36.47
2023-03-22T13:21:38.793Z,24.77
2023-03-22T13:24:05.878Z,56.72
2023-03-22T13:26:54.203Z,69.47
2023-03-22T13:29:34.234Z,56.28
2023-03-22T13:32:29.826Z,67.70
2023-03-22T13:34:57.428Z,67.18
2023-03-22T13:37:49.341Z,83.97
2023-03-22T13:40:39.447Z,100.00
2023-03-22T13:43:37.032Z,87.97
2023-03-22T13:46:11.954Z,91.50
2023-03-22T13:48:54.363Z,98.38
2023-03-22T13:51:25.457Z,112.50
2023-03-22T13:54:14.941Z,96.28
2023-03-22T13:56:44.487Z,139.18
2023-03-22T13:59:12.546Z,151.63
2023-03-22T14:01:51.697Z,116.70
2023-03-22T14:04:29.128Z,158.18
2023-03-22T14:07:04.578Z,166.05
2023-03-22T14:10:02.805Z,125.72
2023-03-22T14:12:58.018Z,112.28
2023-03-22T14:15:31.516Z,140.48
2023-03-22T14:18:17.951Z,123.55
2023-03-22T14:20:49.390Z,118.28
